SBI7520 UTDD-ZMUB
Flight info
| Callsign | SBI7520 |
|---|---|
| Flight time | N/A |
| Altitude | 37000 |
| Route | UTDD N0448F370 JD1A JD B350 VADER L138 TADOT L141 KAMUD A468 XKC B215 FKG G588 IM H84 SER IM ERDEN NOMIN BADAR UB14M RW14 ZMUB |
| Aircraft | B738/M-SDGIWZ/S |
Departure
| Time | 2026-05-06 22:13 |
|---|---|
| Airport | Dushanbe International Airport (UTDD) |
Arrival
| Time | N/A |
|---|---|
| Airport | Buyant-Ukhaa International Airport (ZMUB) |
| Time | Latitude | Longitude | Altitude | Speed | Heading |
|---|---|---|---|---|---|
| 2026-05-06 22:09 | 38.54649 | 68.81055 | 2584 ft | 12 kts | 271° |
| 2026-05-06 22:09 | 38.54650 | 68.80948 | 2584 ft | 11 kts | 271° |
| 2026-05-06 22:09 | 38.54651 | 68.80856 | 2584 ft | 9 kts | 271° |
| 2026-05-06 22:09 | 38.54652 | 68.80778 | 2584 ft | 7 kts | 271° |
| 2026-05-06 22:10 | 38.54650 | 68.80716 | 2584 ft | 7 kts | 267° |
| 2026-05-06 22:10 | 38.54648 | 68.80640 | 2584 ft | 9 kts | 268° |
| 2026-05-06 22:10 | 38.54649 | 68.80535 | 2584 ft | 13 kts | 271° |
| 2026-05-06 22:10 | 38.54628 | 68.80444 | 2584 ft | 10 kts | 204° |
| 2026-05-06 22:11 | 38.54566 | 68.80440 | 2584 ft | 8 kts | 175° |
| 2026-05-06 22:11 | 38.54513 | 68.80445 | 2584 ft | 7 kts | 175° |
| 2026-05-06 22:11 | 38.54458 | 68.80451 | 2584 ft | 8 kts | 175° |
| 2026-05-06 22:11 | 38.54395 | 68.80457 | 2584 ft | 9 kts | 175° |
| 2026-05-06 22:12 | 38.54339 | 68.80490 | 2584 ft | 9 kts | 111° |
| 2026-05-06 22:12 | 38.54336 | 68.80578 | 2584 ft | 10 kts | 89° |
| 2026-05-06 22:12 | 38.54336 | 68.80829 | 2584 ft | 61 kts | 90° |
| 2026-05-06 22:12 | 38.54334 | 68.81683 | 2584 ft | 126 kts | 90° |
| 2026-05-06 22:13 | 38.54333 | 68.83041 | 2588 ft | 177 kts | 90° |
| 2026-05-06 22:13 | 38.54321 | 68.84701 | 2891 ft | 194 kts | 91° |
| 2026-05-06 22:13 | 38.54297 | 68.86464 | 3395 ft | 203 kts | 90° |
| 2026-05-06 22:13 | 38.54299 | 68.88254 | 4091 ft | 208 kts | 89° |
| 2026-05-06 22:14 | 38.54299 | 68.90184 | 4407 ft | 227 kts | 90° |
| 2026-05-06 22:14 | 38.54297 | 68.92276 | 4680 ft | 245 kts | 90° |
| 2026-05-06 22:14 | 38.54294 | 68.94468 | 5171 ft | 252 kts | 90° |
| 2026-05-06 22:14 | 38.54293 | 68.96728 | 5692 ft | 258 kts | 90° |
| 2026-05-06 22:15 | 38.54293 | 68.99043 | 6333 ft | 264 kts | 90° |
| 2026-05-06 22:15 | 38.54294 | 69.01416 | 6827 ft | 277 kts | 90° |
| 2026-05-06 22:15 | 38.54275 | 69.03895 | 7456 ft | 283 kts | 93° |
| 2026-05-06 22:15 | 38.53906 | 69.06386 | 8075 ft | 289 kts | 113° |
| 2026-05-06 22:16 | 38.52769 | 69.08490 | 8774 ft | 289 kts | 136° |
| 2026-05-06 22:16 | 38.51222 | 69.10067 | 9460 ft | 291 kts | 150° |
| 2026-05-06 22:16 | 38.49324 | 69.10915 | 10017 ft | 295 kts | 176° |
| 2026-05-06 22:16 | 38.47274 | 69.10882 | 10590 ft | 300 kts | 181° |
| 2026-05-06 22:17 | 38.45124 | 69.10886 | 10649 ft | 323 kts | 179° |
| 2026-05-06 22:17 | 38.42808 | 69.10859 | 10762 ft | 343 kts | 185° |
| 2026-05-06 22:17 | 38.40447 | 69.10126 | 11073 ft | 354 kts | 205° |
| 2026-05-06 22:17 | 38.38401 | 69.08452 | 11690 ft | 355 kts | 219° |
| 2026-05-06 22:18 | 38.36630 | 69.06171 | 12067 ft | 364 kts | 235° |
| 2026-05-06 22:18 | 38.35575 | 69.03324 | 12790 ft | 360 kts | 254° |
| 2026-05-06 22:18 | 38.35164 | 69.00154 | 13232 ft | 366 kts | 267° |
| 2026-05-06 22:18 | 38.35169 | 68.96912 | 13866 ft | 365 kts | 274° |
| 2026-05-06 22:19 | 38.35548 | 68.93739 | 14258 ft | 370 kts | 285° |
| 2026-05-06 22:19 | 38.36607 | 68.90788 | 14846 ft | 369 kts | 305° |
| 2026-05-06 22:19 | 38.38317 | 68.88320 | 15334 ft | 371 kts | 317° |
| 2026-05-06 22:19 | 38.40387 | 68.86377 | 15808 ft | 374 kts | 332° |
| 2026-05-06 22:20 | 38.42819 | 68.85346 | 16292 ft | 376 kts | 352° |
| 2026-05-06 22:20 | 38.45419 | 68.85188 | 16863 ft | 376 kts | 359° |
| 2026-05-06 22:20 | 38.48040 | 68.85697 | 17033 ft | 388 kts | 20° |
| 2026-05-06 22:20 | 38.50320 | 68.87480 | 17654 ft | 388 kts | 38° |
| 2026-05-06 22:21 | 38.52330 | 68.89820 | 17916 ft | 396 kts | 45° |
| 2026-05-06 22:21 | 38.53898 | 68.92717 | 18210 ft | 404 kts | 66° |
| 2026-05-06 22:21 | 38.54523 | 68.96220 | 18572 ft | 408 kts | 89° |
| 2026-05-06 22:21 | 38.54407 | 68.99789 | 18987 ft | 408 kts | 94° |
| 2026-05-06 22:22 | 38.54317 | 69.03441 | 19009 ft | 416 kts | 91° |
| 2026-05-06 22:22 | 38.54334 | 69.07151 | 19013 ft | 410 kts | 90° |
| 2026-05-06 22:22 | 38.54351 | 69.10761 | 19018 ft | 405 kts | 91° |
| 2026-05-06 22:22 | 38.54356 | 69.14320 | 19020 ft | 402 kts | 91° |
| 2026-05-06 22:23 | 38.54362 | 69.17876 | 19020 ft | 403 kts | 91° |
| 2026-05-06 22:23 | 38.54371 | 69.21484 | 19021 ft | 404 kts | 91° |
| 2026-05-06 22:23 | 38.54380 | 69.25053 | 19020 ft | 404 kts | 91° |
| 2026-05-06 22:23 | 38.54613 | 69.28603 | 19017 ft | 406 kts | 80° |
| 2026-05-06 22:24 | 38.55465 | 69.32059 | 19039 ft | 410 kts | 65° |
| 2026-05-06 22:24 | 38.56875 | 69.35200 | 19551 ft | 408 kts | 56° |
| 2026-05-06 22:24 | 38.58596 | 69.38116 | 19703 ft | 417 kts | 51° |
| 2026-05-06 22:24 | 38.60410 | 69.40979 | 20112 ft | 417 kts | 51° |
| 2026-05-06 22:25 | 38.62228 | 69.43913 | 20342 ft | 422 kts | 52° |
| 2026-05-06 22:25 | 38.64036 | 69.46854 | 20697 ft | 423 kts | 52° |
| 2026-05-06 22:25 | 38.65861 | 69.49812 | 21005 ft | 425 kts | 51° |
| 2026-05-06 22:25 | 38.67704 | 69.52790 | 21285 ft | 428 kts | 51° |
| 2026-05-06 22:26 | 38.69524 | 69.55736 | 21575 ft | 430 kts | 51° |
| 2026-05-06 22:26 | 38.71384 | 69.58747 | 21842 ft | 432 kts | 51° |
| 2026-05-06 22:26 | 38.73257 | 69.61781 | 22134 ft | 434 kts | 51° |
| 2026-05-06 22:26 | 38.75114 | 69.64791 | 22380 ft | 437 kts | 51° |
| 2026-05-06 22:27 | 38.77002 | 69.67854 | 22692 ft | 437 kts | 52° |
| 2026-05-06 22:27 | 38.78886 | 69.70913 | 22946 ft | 439 kts | 52° |
| 2026-05-06 22:27 | 38.80782 | 69.73993 | 23198 ft | 441 kts | 52° |
| 2026-05-06 22:27 | 38.82665 | 69.77055 | 23455 ft | 442 kts | 52° |
| 2026-05-06 22:28 | 38.84580 | 69.80170 | 23679 ft | 445 kts | 51° |
| 2026-05-06 22:28 | 38.86482 | 69.83270 | 23914 ft | 446 kts | 51° |
| 2026-05-06 22:28 | 38.88401 | 69.86398 | 24123 ft | 448 kts | 51° |
| 2026-05-06 22:28 | 38.90339 | 69.89562 | 24350 ft | 450 kts | 51° |
| 2026-05-06 22:29 | 38.92254 | 69.92691 | 24554 ft | 452 kts | 52° |
| 2026-05-06 22:29 | 38.94206 | 69.95882 | 24768 ft | 454 kts | 52° |
| 2026-05-06 22:29 | 38.96156 | 69.99075 | 24975 ft | 455 kts | 52° |
| 2026-05-06 22:29 | 38.98096 | 70.02253 | 25167 ft | 457 kts | 52° |
| 2026-05-06 22:30 | 39.00067 | 70.05486 | 25380 ft | 458 kts | 52° |
| 2026-05-06 22:30 | 39.02014 | 70.08683 | 25552 ft | 460 kts | 52° |
| 2026-05-06 22:30 | 39.03989 | 70.11930 | 25748 ft | 461 kts | 52° |
| 2026-05-06 22:30 | 39.05971 | 70.15192 | 25935 ft | 463 kts | 52° |
| 2026-05-06 22:31 | 39.07951 | 70.18451 | 26109 ft | 465 kts | 52° |
| 2026-05-06 22:31 | 39.09941 | 70.21732 | 26297 ft | 466 kts | 52° |
| 2026-05-06 22:31 | 39.11915 | 70.24990 | 26451 ft | 467 kts | 52° |
| 2026-05-06 22:31 | 39.13919 | 70.28301 | 26605 ft | 469 kts | 52° |
| 2026-05-06 22:32 | 39.15930 | 70.31626 | 26779 ft | 470 kts | 52° |
| 2026-05-06 22:32 | 39.17917 | 70.34914 | 26952 ft | 471 kts | 52° |
| 2026-05-06 22:32 | 39.19936 | 70.38259 | 27106 ft | 472 kts | 52° |
| 2026-05-06 22:32 | 39.21957 | 70.41612 | 27253 ft | 473 kts | 51° |
| 2026-05-06 22:33 | 39.23965 | 70.44946 | 27391 ft | 475 kts | 51° |
| 2026-05-06 22:33 | 39.25990 | 70.48296 | 27553 ft | 476 kts | 51° |
| 2026-05-06 22:33 | 39.28063 | 70.51608 | 27702 ft | 476 kts | 50° |
| 2026-05-06 22:33 | 39.30154 | 70.54893 | 27829 ft | 478 kts | 50° |
| 2026-05-06 22:34 | 39.32256 | 70.58211 | 27959 ft | 479 kts | 50° |
| 2026-05-06 22:34 | 39.34354 | 70.61547 | 28110 ft | 480 kts | 50° |
| 2026-05-06 22:34 | 39.36462 | 70.64904 | 28239 ft | 481 kts | 50° |
| 2026-05-06 22:34 | 39.38554 | 70.68238 | 28353 ft | 482 kts | 50° |
| 2026-05-06 22:35 | 39.40659 | 70.71596 | 28475 ft | 483 kts | 50° |
| 2026-05-06 22:35 | 39.42780 | 70.75015 | 28594 ft | 484 kts | 52° |
| 2026-05-06 22:35 | 39.44695 | 70.78521 | 28701 ft | 485 kts | 57° |
| 2026-05-06 22:35 | 39.46422 | 70.82319 | 28842 ft | 486 kts | 60° |
| 2026-05-06 22:36 | 39.48060 | 70.86110 | 28951 ft | 486 kts | 60° |
| 2026-05-06 22:36 | 39.49730 | 70.89924 | 29066 ft | 487 kts | 60° |
| 2026-05-06 22:36 | 39.51391 | 70.93695 | 29198 ft | 487 kts | 60° |
| 2026-05-06 22:36 | 39.53049 | 70.97489 | 29304 ft | 488 kts | 60° |
| 2026-05-06 22:37 | 39.56361 | 71.05146 | 29571 ft | 487 kts | 60° |
| 2026-05-06 22:37 | 39.58001 | 71.08954 | 29780 ft | 485 kts | 60° |
| 2026-05-06 22:37 | 39.59644 | 71.12781 | 29881 ft | 486 kts | 60° |
| 2026-05-06 22:38 | 39.61290 | 71.16619 | 29994 ft | 486 kts | 60° |
| 2026-05-06 22:38 | 39.62933 | 71.20443 | 30198 ft | 484 kts | 60° |
| 2026-05-06 22:38 | 39.64566 | 71.24232 | 30355 ft | 484 kts | 60° |
| 2026-05-06 22:38 | 39.66205 | 71.28052 | 30429 ft | 485 kts | 60° |
| 2026-05-06 22:39 | 39.67834 | 71.31817 | 30535 ft | 485 kts | 59° |
| 2026-05-06 22:39 | 39.69593 | 71.35570 | 30709 ft | 483 kts | 57° |
| 2026-05-06 22:39 | 39.71379 | 71.39230 | 30844 ft | 483 kts | 56° |
| 2026-05-06 22:39 | 39.73161 | 71.42923 | 30956 ft | 483 kts | 57° |
| 2026-05-06 22:40 | 39.74922 | 71.46632 | 31109 ft | 483 kts | 57° |
| 2026-05-06 22:40 | 39.76657 | 71.50301 | 31205 ft | 483 kts | 57° |
| 2026-05-06 22:40 | 39.78431 | 71.54052 | 31333 ft | 483 kts | 57° |
| 2026-05-06 22:40 | 39.80185 | 71.57754 | 31443 ft | 483 kts | 57° |
| 2026-05-06 22:41 | 39.83676 | 71.65128 | 31689 ft | 482 kts | 57° |
| 2026-05-06 22:41 | 39.85441 | 71.68877 | 31778 ft | 483 kts | 57° |
| 2026-05-06 22:41 | 39.87178 | 71.72590 | 31883 ft | 482 kts | 57° |
| 2026-05-06 22:42 | 39.88899 | 71.76278 | 32049 ft | 481 kts | 57° |
| 2026-05-06 22:42 | 39.92388 | 71.83699 | 32219 ft | 481 kts | 57° |
| 2026-05-06 22:42 | 39.94130 | 71.87382 | 32356 ft | 480 kts | 57° |
| 2026-05-06 22:43 | 39.95869 | 71.91093 | 32463 ft | 480 kts | 57° |
| 2026-05-06 22:43 | 39.99309 | 71.98522 | 32630 ft | 480 kts | 57° |
| 2026-05-06 22:43 | 40.01033 | 72.02251 | 32748 ft | 480 kts | 57° |
| 2026-05-06 22:44 | 40.02751 | 72.05959 | 32818 ft | 480 kts | 57° |
| 2026-05-06 22:44 | 40.06231 | 72.13414 | 33006 ft | 480 kts | 56° |
| 2026-05-06 22:44 | 40.07939 | 72.17082 | 33120 ft | 479 kts | 57° |
| 2026-05-06 22:45 | 40.09672 | 72.20828 | 33225 ft | 479 kts | 57° |
| 2026-05-06 22:45 | 40.13076 | 72.28220 | 33409 ft | 478 kts | 57° |
| 2026-05-06 22:46 | 40.16493 | 72.35665 | 33554 ft | 478 kts | 57° |
| 2026-05-06 22:46 | 40.18210 | 72.39381 | 33656 ft | 478 kts | 56° |
| 2026-05-06 22:46 | 40.19925 | 72.43085 | 33744 ft | 477 kts | 56° |
| 2026-05-06 22:46 | 40.21635 | 72.46783 | 33851 ft | 476 kts | 56° |
| 2026-05-06 22:47 | 40.23333 | 72.50475 | 33989 ft | 475 kts | 56° |
| 2026-05-06 22:47 | 40.26702 | 72.57877 | 34166 ft | 474 kts | 56° |
| 2026-05-06 22:48 | 40.29763 | 72.65524 | 34326 ft | 476 kts | 64° |
| 2026-05-06 22:48 | 40.32531 | 72.73380 | 34487 ft | 474 kts | 63° |
| 2026-05-06 22:49 | 40.35367 | 72.81120 | 34616 ft | 474 kts | 62° |
| 2026-05-06 22:49 | 40.38187 | 72.88927 | 34754 ft | 474 kts | 63° |
| 2026-05-06 22:50 | 40.40960 | 72.96722 | 34906 ft | 473 kts | 63° |
| 2026-05-06 22:50 | 40.43787 | 73.04504 | 35045 ft | 472 kts | 63° |
| 2026-05-06 22:51 | 40.46571 | 73.12238 | 35196 ft | 471 kts | 63° |
| 2026-05-06 22:51 | 40.49343 | 73.20028 | 35335 ft | 471 kts | 64° |
| 2026-05-06 22:52 | 40.52084 | 73.27784 | 35465 ft | 470 kts | 64° |
| 2026-05-06 22:52 | 40.54836 | 73.35525 | 35599 ft | 469 kts | 63° |
| 2026-05-06 22:53 | 40.57613 | 73.43259 | 35734 ft | 469 kts | 63° |
| 2026-05-06 22:53 | 40.60371 | 73.51014 | 35864 ft | 468 kts | 64° |
| 2026-05-06 22:54 | 40.63104 | 73.58781 | 35994 ft | 467 kts | 64° |
| 2026-05-06 22:54 | 40.65813 | 73.66516 | 36116 ft | 466 kts | 64° |
| 2026-05-06 22:55 | 40.68505 | 73.74213 | 36240 ft | 465 kts | 64° |
| 2026-05-06 22:55 | 40.71211 | 73.81909 | 36367 ft | 464 kts | 64° |
| 2026-05-06 22:56 | 40.73946 | 73.89605 | 36485 ft | 463 kts | 64° |
| 2026-05-06 22:56 | 40.76614 | 73.97279 | 36608 ft | 462 kts | 64° |
| 2026-05-06 22:57 | 40.79278 | 74.04991 | 36731 ft | 461 kts | 64° |
| 2026-05-06 22:57 | 40.81918 | 74.12656 | 36844 ft | 460 kts | 64° |
| 2026-05-06 22:58 | 40.84555 | 74.20322 | 36958 ft | 459 kts | 64° |
| 2026-05-06 22:58 | 40.87169 | 74.27937 | 37049 ft | 458 kts | 64° |
| 2026-05-06 22:59 | 40.89825 | 74.35610 | 37048 ft | 460 kts | 64° |
| 2026-05-06 22:59 | 40.92472 | 74.43248 | 37047 ft | 462 kts | 64° |
| 2026-05-06 23:00 | 40.95124 | 74.50983 | 37046 ft | 464 kts | 64° |
| 2026-05-06 23:00 | 40.97766 | 74.58785 | 37048 ft | 465 kts | 64° |
| 2026-05-06 23:01 | 41.00423 | 74.66581 | 37054 ft | 466 kts | 64° |
| 2026-05-06 23:01 | 41.03084 | 74.74377 | 37109 ft | 466 kts | 65° |
| 2026-05-06 23:02 | 41.05712 | 74.82184 | 37162 ft | 466 kts | 65° |
| 2026-05-06 23:02 | 41.08406 | 74.90012 | 37208 ft | 466 kts | 61° |
| 2026-05-06 23:03 | 41.11587 | 74.97445 | 37209 ft | 466 kts | 58° |
| 2026-05-06 23:03 | 41.14766 | 75.04958 | 37179 ft | 468 kts | 59° |
| 2026-05-06 23:04 | 41.17882 | 75.12489 | 37135 ft | 470 kts | 59° |
| 2026-05-06 23:04 | 41.21028 | 75.20104 | 37127 ft | 471 kts | 59° |
| 2026-05-06 23:05 | 41.24178 | 75.27707 | 37147 ft | 471 kts | 59° |
| 2026-05-06 23:05 | 41.25762 | 75.31544 | 36801 ft | 477 kts | 59° |
| 2026-05-06 23:05 | 41.27341 | 75.35383 | 36784 ft | 469 kts | 59° |
| 2026-05-06 23:06 | 41.30441 | 75.42885 | 36778 ft | 466 kts | 59° |
| 2026-05-06 23:06 | 41.33546 | 75.50413 | 36776 ft | 467 kts | 59° |
| 2026-05-06 23:07 | 41.36669 | 75.57996 | 36777 ft | 469 kts | 59° |
| 2026-05-06 23:07 | 41.39790 | 75.65629 | 36776 ft | 470 kts | 60° |
| 2026-05-06 23:08 | 41.42355 | 75.73589 | 36776 ft | 473 kts | 73° |
| 2026-05-06 23:08 | 41.43328 | 75.82223 | 36779 ft | 474 kts | 87° |
| 2026-05-06 23:09 | 41.43750 | 75.91013 | 36776 ft | 475 kts | 85° |
| 2026-05-06 23:09 | 41.44247 | 75.99743 | 36777 ft | 474 kts | 85° |
| 2026-05-06 23:10 | 41.44743 | 76.08499 | 36776 ft | 474 kts | 85° |
| 2026-05-06 23:10 | 41.45219 | 76.17238 | 36777 ft | 475 kts | 85° |
| 2026-05-06 23:11 | 41.45689 | 76.25963 | 36777 ft | 474 kts | 85° |
| 2026-05-06 23:11 | 41.46156 | 76.34725 | 36776 ft | 475 kts | 85° |
| 2026-05-06 23:12 | 41.46624 | 76.43468 | 36775 ft | 475 kts | 85° |
| 2026-05-06 23:12 | 41.47079 | 76.52206 | 36776 ft | 474 kts | 85° |
| 2026-05-06 23:13 | 41.47510 | 76.61006 | 36777 ft | 475 kts | 86° |
| 2026-05-06 23:13 | 41.47955 | 76.69726 | 36778 ft | 473 kts | 86° |
| 2026-05-06 23:14 | 41.48394 | 76.78455 | 36776 ft | 474 kts | 86° |
| 2026-05-06 23:14 | 41.48815 | 76.87244 | 36800 ft | 475 kts | 86° |
| 2026-05-06 23:15 | 41.49233 | 76.95975 | 36840 ft | 473 kts | 86° |
| 2026-05-06 23:15 | 41.49634 | 77.04689 | 36885 ft | 472 kts | 85° |
| 2026-05-06 23:16 | 41.50060 | 77.13433 | 36899 ft | 472 kts | 85° |
| 2026-05-06 23:16 | 41.50449 | 77.22105 | 36906 ft | 471 kts | 85° |
| 2026-05-06 23:17 | 41.50840 | 77.30813 | 36924 ft | 472 kts | 85° |
| 2026-05-06 23:17 | 41.51225 | 77.39517 | 36995 ft | 471 kts | 85° |
| 2026-05-06 23:18 | 41.51594 | 77.48267 | 37063 ft | 471 kts | 85° |
| 2026-05-06 23:18 | 41.51965 | 77.56938 | 37099 ft | 472 kts | 85° |
| 2026-05-06 23:19 | 41.52329 | 77.65685 | 37102 ft | 472 kts | 86° |
| 2026-05-06 23:19 | 41.52675 | 77.74417 | 37100 ft | 471 kts | 86° |
| 2026-05-06 23:20 | 41.53046 | 77.83091 | 37100 ft | 471 kts | 86° |
| 2026-05-06 23:20 | 41.53382 | 77.91773 | 37254 ft | 469 kts | 86° |
| 2026-05-06 23:21 | 41.53727 | 78.00467 | 37264 ft | 470 kts | 86° |
| 2026-05-06 23:21 | 41.54038 | 78.09165 | 37263 ft | 471 kts | 86° |
| 2026-05-06 23:22 | 41.54359 | 78.17865 | 37264 ft | 473 kts | 86° |
| 2026-05-06 23:22 | 41.54668 | 78.26610 | 37263 ft | 472 kts | 86° |
| 2026-05-06 23:23 | 41.54987 | 78.35367 | 37263 ft | 473 kts | 86° |
| 2026-05-06 23:23 | 41.55287 | 78.44076 | 37261 ft | 472 kts | 86° |
| 2026-05-06 23:24 | 41.55588 | 78.52821 | 37262 ft | 470 kts | 86° |
| 2026-05-06 23:24 | 41.55895 | 78.61549 | 37264 ft | 472 kts | 86° |
| 2026-05-06 23:25 | 41.56176 | 78.70299 | 37264 ft | 473 kts | 87° |
| 2026-05-06 23:25 | 41.56439 | 78.78986 | 37262 ft | 472 kts | 87° |
| 2026-05-06 23:26 | 41.56742 | 78.87740 | 37263 ft | 472 kts | 86° |
| 2026-05-06 23:26 | 41.57153 | 78.96490 | 37263 ft | 472 kts | 85° |
| 2026-05-06 23:27 | 41.57543 | 79.05195 | 37263 ft | 472 kts | 85° |
| 2026-05-06 23:27 | 41.57905 | 79.13931 | 37263 ft | 471 kts | 85° |
| 2026-05-06 23:28 | 41.58262 | 79.22606 | 37264 ft | 470 kts | 85° |
| 2026-05-06 23:28 | 41.58619 | 79.31265 | 37264 ft | 467 kts | 85° |
| 2026-05-06 23:29 | 41.58957 | 79.39935 | 37263 ft | 468 kts | 85° |
| 2026-05-06 23:29 | 41.59315 | 79.48601 | 37264 ft | 470 kts | 85° |
| 2026-05-06 23:30 | 41.59651 | 79.57265 | 37262 ft | 471 kts | 85° |
| 2026-05-06 23:30 | 41.59962 | 79.65989 | 37262 ft | 469 kts | 86° |
| 2026-05-06 23:31 | 41.60274 | 79.74682 | 37260 ft | 468 kts | 86° |
| 2026-05-06 23:31 | 41.60585 | 79.83341 | 37256 ft | 470 kts | 85° |
| 2026-05-06 23:32 | 41.60901 | 79.92040 | 37249 ft | 470 kts | 85° |
| 2026-05-06 23:32 | 41.61214 | 80.00710 | 37180 ft | 469 kts | 86° |
| 2026-05-06 23:33 | 41.61500 | 80.09383 | 37099 ft | 468 kts | 86° |
| 2026-05-06 23:33 | 41.61787 | 80.18096 | 37024 ft | 470 kts | 86° |
| 2026-05-06 23:34 | 41.62075 | 80.26806 | 37021 ft | 469 kts | 85° |
| 2026-05-06 23:34 | 41.62366 | 80.35450 | 37022 ft | 468 kts | 86° |
| 2026-05-06 23:35 | 41.62635 | 80.44159 | 37021 ft | 469 kts | 86° |
| 2026-05-06 23:35 | 41.62880 | 80.52839 | 37018 ft | 468 kts | 86° |
| 2026-05-06 23:36 | 41.63117 | 80.61511 | 37020 ft | 469 kts | 86° |
| 2026-05-06 23:36 | 41.63393 | 80.70177 | 37021 ft | 469 kts | 85° |
| 2026-05-06 23:37 | 41.63719 | 80.78884 | 37025 ft | 469 kts | 86° |
| 2026-05-06 23:37 | 41.63994 | 80.87554 | 37026 ft | 468 kts | 86° |
| 2026-05-06 23:38 | 41.64235 | 80.96274 | 37033 ft | 469 kts | 86° |
| 2026-05-06 23:38 | 41.64398 | 81.04936 | 37041 ft | 469 kts | 85° |
| 2026-05-06 23:39 | 41.64581 | 81.13637 | 37048 ft | 467 kts | 84° |
| 2026-05-06 23:39 | 41.64776 | 81.22298 | 37047 ft | 466 kts | 84° |
| 2026-05-06 23:40 | 41.65006 | 81.30916 | 37047 ft | 466 kts | 84° |
| 2026-05-06 23:40 | 41.65263 | 81.39544 | 37046 ft | 468 kts | 84° |
| 2026-05-06 23:41 | 41.65471 | 81.48212 | 37047 ft | 467 kts | 84° |
| 2026-05-06 23:41 | 41.65684 | 81.56838 | 37047 ft | 466 kts | 84° |
| 2026-05-06 23:42 | 41.65879 | 81.65487 | 37047 ft | 467 kts | 85° |
| 2026-05-06 23:42 | 41.66059 | 81.74202 | 37045 ft | 468 kts | 85° |
| 2026-05-06 23:43 | 41.66240 | 81.82818 | 37045 ft | 468 kts | 85° |
| 2026-05-06 23:43 | 41.66402 | 81.91516 | 37046 ft | 467 kts | 85° |
| 2026-05-06 23:44 | 41.66555 | 82.00150 | 37047 ft | 467 kts | 85° |
| 2026-05-06 23:44 | 41.66705 | 82.08852 | 37048 ft | 468 kts | 85° |
| 2026-05-06 23:45 | 41.66846 | 82.17484 | 37046 ft | 468 kts | 85° |
| 2026-05-06 23:45 | 41.66982 | 82.26147 | 37046 ft | 467 kts | 85° |
| 2026-05-06 23:46 | 41.67126 | 82.34840 | 37047 ft | 468 kts | 85° |
| 2026-05-06 23:46 | 41.67205 | 82.43529 | 37046 ft | 468 kts | 86° |
| 2026-05-06 23:47 | 41.67262 | 82.52200 | 37047 ft | 467 kts | 85° |
| 2026-05-06 23:47 | 41.67350 | 82.60843 | 37055 ft | 468 kts | 85° |
| 2026-05-06 23:48 | 41.67434 | 82.69539 | 37073 ft | 467 kts | 86° |
| 2026-05-06 23:48 | 41.67520 | 82.78196 | 37094 ft | 466 kts | 84° |
| 2026-05-06 23:48 | 41.67957 | 82.82465 | 37099 ft | 459 kts | 69° |
| 2026-05-06 23:49 | 41.69096 | 82.86360 | 37112 ft | 453 kts | 60° |
| 2026-05-06 23:49 | 41.72140 | 82.93656 | 37098 ft | 450 kts | 53° |
| 2026-05-06 23:50 | 41.75454 | 83.00743 | 37102 ft | 451 kts | 54° |
| 2026-05-06 23:50 | 41.80360 | 83.11471 | 37100 ft | 450 kts | 54° |
| 2026-05-06 23:51 | 41.83655 | 83.18607 | 37101 ft | 451 kts | 54° |
| 2026-05-06 23:51 | 41.86957 | 83.25706 | 37100 ft | 450 kts | 53° |
| 2026-05-06 23:52 | 41.90268 | 83.32799 | 37100 ft | 449 kts | 54° |
| 2026-05-06 23:52 | 41.93551 | 83.39913 | 37101 ft | 450 kts | 54° |
| 2026-05-06 23:53 | 41.96804 | 83.47031 | 37100 ft | 450 kts | 54° |
| 2026-05-06 23:53 | 42.00100 | 83.54165 | 37100 ft | 450 kts | 53° |
| 2026-05-06 23:54 | 42.03384 | 83.61295 | 37100 ft | 450 kts | 54° |
| 2026-05-06 23:54 | 42.06644 | 83.68484 | 37101 ft | 450 kts | 54° |
| 2026-05-06 23:55 | 42.09883 | 83.75635 | 37102 ft | 451 kts | 55° |
| 2026-05-06 23:55 | 42.13145 | 83.82825 | 37100 ft | 451 kts | 54° |
| 2026-05-06 23:56 | 42.16412 | 83.90025 | 37102 ft | 451 kts | 54° |
| 2026-05-06 23:56 | 42.19697 | 83.97173 | 37101 ft | 450 kts | 54° |
| 2026-05-06 23:57 | 42.23068 | 84.04297 | 37101 ft | 449 kts | 51° |
| 2026-05-06 23:57 | 42.26635 | 84.11144 | 37101 ft | 448 kts | 51° |
| 2026-05-06 23:58 | 42.30143 | 84.18024 | 37100 ft | 448 kts | 51° |
| 2026-05-06 23:58 | 42.33639 | 84.24969 | 37101 ft | 449 kts | 51° |
| 2026-05-06 23:59 | 42.37155 | 84.31941 | 37101 ft | 450 kts | 51° |
| 2026-05-06 23:59 | 42.40677 | 84.38882 | 37101 ft | 449 kts | 51° |
| 2026-05-07 00:00 | 42.44208 | 84.45858 | 37100 ft | 449 kts | 51° |
| 2026-05-07 00:00 | 42.47126 | 84.51662 | 37101 ft | 449 kts | 51° |
| 2026-05-07 00:01 | 42.51183 | 84.59817 | 37101 ft | 449 kts | 51° |
| 2026-05-07 00:01 | 42.54658 | 84.66841 | 37101 ft | 450 kts | 52° |
| 2026-05-07 00:02 | 42.58120 | 84.73821 | 37100 ft | 449 kts | 52° |
| 2026-05-07 00:02 | 42.61606 | 84.80817 | 37101 ft | 449 kts | 52° |
| 2026-05-07 00:03 | 42.65105 | 84.87850 | 37102 ft | 448 kts | 52° |
| 2026-05-07 00:03 | 42.68573 | 84.94837 | 37099 ft | 449 kts | 52° |
| 2026-05-07 00:04 | 42.72040 | 85.01880 | 37100 ft | 450 kts | 52° |
| 2026-05-07 00:04 | 42.75514 | 85.08932 | 37101 ft | 453 kts | 52° |
| 2026-05-07 00:05 | 42.79032 | 85.16049 | 37101 ft | 456 kts | 52° |
| 2026-05-07 00:05 | 42.82571 | 85.23233 | 37009 ft | 461 kts | 53° |
| 2026-05-07 00:06 | 42.84346 | 85.26891 | 36803 ft | 462 kts | 53° |
| 2026-05-07 00:06 | 42.86097 | 85.30518 | 36799 ft | 459 kts | 53° |
| 2026-05-07 00:06 | 42.89600 | 85.37768 | 36803 ft | 459 kts | 53° |
| 2026-05-07 00:07 | 42.93111 | 85.44974 | 36806 ft | 460 kts | 53° |
| 2026-05-07 00:07 | 42.96652 | 85.52232 | 36921 ft | 457 kts | 53° |
| 2026-05-07 00:08 | 43.00122 | 85.59418 | 37051 ft | 456 kts | 53° |
| 2026-05-07 00:08 | 43.03602 | 85.66697 | 37182 ft | 456 kts | 54° |
| 2026-05-07 00:09 | 43.07071 | 85.73918 | 37183 ft | 458 kts | 53° |
| 2026-05-07 00:09 | 43.10569 | 85.81147 | 37154 ft | 457 kts | 53° |
| 2026-05-07 00:10 | 43.14062 | 85.88363 | 37185 ft | 457 kts | 53° |
| 2026-05-07 00:10 | 43.17513 | 85.95670 | 37234 ft | 458 kts | 54° |
| 2026-05-07 00:11 | 43.20974 | 86.02919 | 37236 ft | 457 kts | 53° |
| 2026-05-07 00:11 | 43.24515 | 86.10188 | 37237 ft | 457 kts | 53° |
| 2026-05-07 00:12 | 43.27983 | 86.17399 | 37236 ft | 456 kts | 53° |
| 2026-05-07 00:12 | 43.31486 | 86.24651 | 37234 ft | 457 kts | 53° |
| 2026-05-07 00:13 | 43.35041 | 86.31883 | 37236 ft | 457 kts | 52° |
| 2026-05-07 00:13 | 43.38553 | 86.39111 | 37235 ft | 456 kts | 53° |
| 2026-05-07 00:14 | 43.42034 | 86.46338 | 37237 ft | 456 kts | 53° |
| 2026-05-07 00:14 | 43.45541 | 86.53602 | 37235 ft | 457 kts | 53° |
| 2026-05-07 00:15 | 43.49062 | 86.60837 | 37235 ft | 456 kts | 52° |
| 2026-05-07 00:15 | 43.52616 | 86.68082 | 37236 ft | 456 kts | 53° |
| 2026-05-07 00:16 | 43.56144 | 86.75340 | 37236 ft | 458 kts | 53° |
| 2026-05-07 00:16 | 43.59604 | 86.82678 | 37237 ft | 458 kts | 54° |
| 2026-05-07 00:17 | 43.63034 | 86.90044 | 37236 ft | 457 kts | 54° |
| 2026-05-07 00:17 | 43.66463 | 86.97346 | 37236 ft | 458 kts | 54° |
| 2026-05-07 00:18 | 43.69924 | 87.04733 | 37236 ft | 461 kts | 54° |
| 2026-05-07 00:18 | 43.73414 | 87.12169 | 37235 ft | 462 kts | 54° |
| 2026-05-07 00:19 | 43.76911 | 87.19593 | 37235 ft | 462 kts | 54° |